Time;durP1;ratioP1;P1;durP2;ratioP2;P2;SDS_P1;SDS_P2;PMS_P1;PMS_P2;Temp;Humidity;BMP_temperature;BMP_pressure;BME280_temperature;BME280_humidity;BME280_pressure;Samples;Min_cycle;Max_cycle;Signal;HPM_P1;HPM_P2
2021/04/19 00:02:23;;;;;;;45.97;28.73;;;;;;;8.82;66.33;95027.19;5083763;28;20458;-67
2021/04/19 00:04:50;;;;;;;46.10;28.63;;;;;;;8.89;65.75;95027.00;5076504;28;20473;-67
2021/04/19 00:07:17;;;;;;;45.03;28.93;;;;;;;8.90;65.91;95029.41;5066703;28;20233;-67
2021/04/19 00:09:44;;;;;;;48.17;28.57;;;;;;;8.89;66.06;95016.56;5084958;28;20477;-68
2021/04/19 00:12:10;;;;;;;44.70;27.10;;;;;;;8.95;66.54;95020.81;5085225;28;20461;-67
2021/04/19 00:14:37;;;;;;;44.93;26.93;;;;;;;8.88;66.09;95013.19;5075824;28;20470;-66
2021/04/19 00:17:03;;;;;;;45.43;28.63;;;;;;;8.90;66.77;95013.72;5083939;28;20564;-67
2021/04/19 00:19:30;;;;;;;43.87;26.87;;;;;;;8.99;65.73;95006.25;5083146;28;20473;-67
2021/04/19 00:21:57;;;;;;;47.40;28.67;;;;;;;9.00;66.28;95003.38;5086969;28;20464;-67
2021/04/19 00:24:23;;;;;;;44.10;28.57;;;;;;;8.90;65.88;95008.50;5069041;28;20500;-67
2021/04/19 00:26:49;;;;;;;48.33;29.17;;;;;;;9.05;65.54;95000.81;5083017;28;20877;-67
2021/04/19 00:29:16;;;;;;;47.37;28.87;;;;;;;9.14;65.27;95009.81;5081748;28;20532;-66
2021/04/19 00:31:43;;;;;;;44.33;27.23;;;;;;;9.11;65.55;94996.44;5086705;28;21057;-66
2021/04/19 00:34:10;;;;;;;44.53;28.13;;;;;;;9.14;64.81;94999.38;5076875;28;20474;-67
2021/04/19 00:36:36;;;;;;;44.00;27.80;;;;;;;9.09;65.08;94996.69;5081198;28;20792;-68
2021/04/19 00:39:03;;;;;;;49.07;28.03;;;;;;;9.12;65.54;94983.13;5081864;28;20812;-68
2021/04/19 00:41:30;;;;;;;49.50;27.77;;;;;;;9.15;65.20;94993.13;5086705;28;20457;-69
2021/04/19 00:43:56;;;;;;;49.73;30.60;;;;;;;9.06;65.66;94984.13;5079034;28;20460;-69
2021/04/19 00:46:23;;;;;;;55.50;32.63;;;;;;;9.02;65.84;94977.00;5076494;28;20445;-68
2021/04/19 00:48:49;;;;;;;61.40;36.30;;;;;;;8.88;66.13;94968.75;5080980;28;20994;-68
2021/04/19 00:51:16;;;;;;;62.53;37.63;;;;;;;8.94;65.52;94974.84;5088526;28;20445;-68
2021/04/19 00:53:43;;;;;;;61.73;36.40;;;;;;;8.82;65.92;94963.69;5078771;28;20459;-69
2021/04/19 00:56:10;;;;;;;58.77;34.27;;;;;;;8.86;66.02;94965.59;5079707;28;20792;-69
2021/04/19 00:58:40;;;;;;;59.93;33.13;;;;;;;8.87;66.17;94967.16;5079073;28;20445;-68
2021/04/19 01:01:08;;;;;;;60.77;32.27;;;;;;;8.85;65.76;94974.44;5089073;28;20517;-68
2021/04/19 01:03:35;;;;;;;59.00;31.38;;;;;;;8.87;66.14;94966.34;5074320;28;20484;-68
2021/04/19 01:06:03;;;;;;;54.60;31.27;;;;;;;8.69;66.32;94964.03;5078982;28;20207;-68
2021/04/19 01:08:33;;;;;;;53.20;28.53;;;;;;;8.76;66.61;94962.03;5078714;28;20207;-68
2021/04/19 01:11:00;;;;;;;51.78;29.25;;;;;;;8.72;66.66;94969.56;5089166;28;21062;-68
2021/04/19 01:13:27;;;;;;;49.67;28.13;;;;;;;8.51;66.32;94957.28;5075055;28;20290;-67
2021/04/19 01:15:54;;;;;;;51.70;29.17;;;;;;;8.55;66.70;94960.19;5079393;28;20491;-68
2021/04/19 01:18:22;;;;;;;45.70;28.15;;;;;;;8.48;66.90;94970.81;5080987;28;20450;-67
2021/04/19 01:20:50;;;;;;;48.63;27.48;;;;;;;8.67;65.62;94971.31;5068951;28;20541;-68
2021/04/19 01:23:19;;;;;;;45.58;25.75;;;;;;;8.65;65.58;94968.94;5074295;28;20197;-69
2021/04/19 01:25:48;;;;;;;46.60;27.70;;;;;;;8.63;66.05;94971.00;5080036;28;20677;-67
2021/04/19 01:28:16;;;;;;;45.97;27.20;;;;;;;8.57;66.53;94965.97;5076881;28;20549;-67
2021/04/19 01:30:46;;;;;;;44.25;26.50;;;;;;;8.54;66.59;94967.25;5090376;28;20441;-68
2021/04/19 01:33:13;;;;;;;45.20;26.77;;;;;;;8.62;66.21;94968.66;5075009;28;20755;-67
2021/04/19 01:35:40;;;;;;;38.60;23.70;;;;;;;8.47;66.55;94965.81;5074884;28;20326;-68
2021/04/19 01:38:09;;;;;;;40.57;24.03;;;;;;;8.53;66.61;94963.06;5077800;28;20454;-68
2021/04/19 01:40:36;;;;;;;38.00;21.85;;;;;;;8.50;65.98;94971.38;5094326;28;20529;-66
2021/04/19 01:43:04;;;;;;;33.15;22.00;;;;;;;8.78;65.14;94963.38;5081173;28;21456;-68
2021/04/19 01:45:42;;;;;;;36.65;21.05;;;;;;;8.72;65.71;94964.34;5077692;28;20234;-68
2021/04/19 01:48:09;;;;;;;31.00;20.05;;;;;;;8.75;65.25;94971.72;5079492;28;20191;-69
2021/04/19 01:50:36;;;;;;;30.08;20.55;;;;;;;8.64;65.88;94977.03;5094359;28;20199;-69
2021/04/19 01:53:04;;;;;;;31.67;19.67;;;;;;;8.68;65.76;94978.94;5081390;28;20207;-68
2021/04/19 01:55:34;;;;;;;29.17;18.83;;;;;;;8.69;65.55;94971.88;5082032;28;20930;-68
2021/04/19 01:58:09;;;;;;;30.63;19.87;;;;;;;8.76;65.20;94960.22;5080379;28;20523;-69
2021/04/19 02:00:38;;;;;;;28.85;18.83;;;;;;;8.83;64.79;94958.22;5052803;28;20879;-68
2021/04/19 02:03:23;;;;;;;32.40;20.57;;;;;;;8.82;65.37;94961.88;5075784;28;20191;-68
2021/04/19 02:06:09;;;;;;;33.67;20.10;;;;;;;8.86;65.21;94965.59;5079838;28;20536;-68
2021/04/19 02:08:58;;;;;;;32.30;21.50;;;;;;;8.76;64.98;94959.44;5078464;28;20456;-67
2021/04/19 02:11:35;;;;;;;35.40;21.17;;;;;;;8.74;64.91;94941.38;5090098;28;20449;-67
2021/04/19 02:14:17;;;;;;;30.80;21.03;;;;;;;8.80;65.22;94945.66;5080308;28;20225;-68
2021/04/19 02:17:03;;;;;;;32.17;21.75;;;;;;;8.69;65.58;94958.81;5083984;28;20460;-68
2021/04/19 02:19:41;;;;;;;36.37;22.83;;;;;;;8.72;65.36;94948.66;5080804;28;20238;-67
2021/04/19 02:22:24;;;;;;;34.13;22.80;;;;;;;8.91;64.62;94947.34;5076448;28;20456;-68
2021/04/19 02:25:05;;;;;;;37.95;24.13;;;;;;;8.82;65.03;94943.59;5077062;28;20438;-67
2021/04/19 02:27:37;;;;;;;33.83;23.73;;;;;;;8.80;65.34;94935.19;5082974;28;20249;-68
2021/04/19 02:30:09;;;;;;;34.67;23.07;;;;;;;8.69;65.16;94943.94;5089738;28;20466;-68
2021/04/19 02:32:40;;;;;;;36.13;22.73;;;;;;;8.71;65.01;94920.19;5083387;28;20449;-68
2021/04/19 02:35:12;;;;;;;32.83;21.83;;;;;;;8.63;65.20;94903.09;5087165;28;20231;-67
2021/04/19 02:37:52;;;;;;;37.47;23.47;;;;;;;8.86;64.79;94928.22;5076102;28;20208;-68
2021/04/19 02:40:20;;;;;;;35.30;22.55;;;;;;;8.55;65.74;94916.59;5090619;28;20449;-68
2021/04/19 02:42:50;;;;;;;36.37;24.80;;;;;;;8.56;65.61;94914.78;5082039;28;20204;-70
2021/04/19 02:45:19;;;;;;;40.22;26.95;;;;;;;8.37;66.43;94918.69;5081750;28;21021;-68
2021/04/19 02:47:55;;;;;;;43.93;28.27;;;;;;;8.58;65.75;94905.66;5078847;28;20223;-69
2021/04/19 02:50:34;;;;;;;50.20;34.87;;;;;;;8.38;65.92;94900.19;5052546;28;20435;-69
2021/04/19 02:53:02;;;;;;;46.88;32.45;;;;;;;8.43;66.71;94902.09;5075390;28;21048;-69
2021/04/19 02:55:30;;;;;;;40.97;27.95;;;;;;;8.46;66.20;94897.16;5082035;28;20227;-67
2021/04/19 02:58:03;;;;;;;40.67;26.95;;;;;;;8.54;65.12;94888.88;5080522;28;20204;-69
2021/04/19 03:00:50;;;;;;;38.30;24.97;;;;;;;8.72;65.47;94895.66;5052467;28;20259;-69
2021/04/19 03:03:26;;;;;;;33.23;23.03;;;;;;;8.73;65.38;94903.25;5076580;28;20477;-69
2021/04/19 03:05:59;;;;;;;36.80;23.53;;;;;;;8.73;65.38;94905.06;5081343;28;21013;-70
2021/04/19 03:08:31;;;;;;;34.00;22.80;;;;;;;8.50;65.79;94897.47;5079097;28;20448;-70
2021/04/19 03:11:06;;;;;;;32.70;23.58;;;;;;;8.67;65.99;94903.41;5090161;28;20501;-69
2021/04/19 03:13:37;;;;;;;41.30;24.13;;;;;;;8.61;65.38;94904.41;5081799;28;20207;-69
2021/04/19 03:16:09;;;;;;;40.37;23.40;;;;;;;8.68;65.53;94905.81;5080742;28;20618;-68
2021/04/19 03:18:39;;;;;;;37.17;23.27;;;;;;;8.75;64.85;94913.44;5073661;28;20475;-69
2021/04/19 03:21:18;;;;;;;35.73;23.53;;;;;;;8.69;65.05;94912.59;5095445;28;20987;-69
2021/04/19 03:24:09;;;;;;;33.25;23.02;;;;;;;8.68;65.00;94911.03;5080320;28;20533;-69
2021/04/19 03:26:55;;;;;;;32.15;20.88;;;;;;;8.48;65.31;94900.31;5083726;28;20237;-73
2021/04/19 03:29:26;;;;;;;32.57;22.30;;;;;;;8.67;65.15;94906.81;5073279;28;20195;-69
2021/04/19 03:32:08;;;;;;;35.73;23.27;;;;;;;8.74;65.14;94902.19;5087602;28;20916;-68
2021/04/19 03:34:42;;;;;;;33.47;22.93;;;;;;;8.66;65.72;94889.56;5076598;28;20546;-68
2021/04/19 03:37:18;;;;;;;32.43;22.93;;;;;;;8.61;65.73;94899.94;5085249;28;20461;-67
2021/04/19 03:39:51;;;;;;;32.87;21.67;;;;;;;8.58;65.91;94899.63;5086748;28;20449;-69
2021/04/19 03:42:20;;;;;;;29.77;20.70;;;;;;;8.52;65.90;94900.63;5084962;28;20454;-68
2021/04/19 03:44:49;;;;;;;31.13;23.07;;;;;;;8.65;65.28;94895.06;5076915;28;20858;-72
2021/04/19 03:47:33;;;;;;;35.47;25.13;;;;;;;8.65;65.43;94887.97;5065116;28;20465;-69
2021/04/19 03:50:12;;;;;;;32.53;23.03;;;;;;;8.72;65.28;94885.97;5049919;28;20212;-71
2021/04/19 03:52:50;;;;;;;29.45;20.33;;;;;;;8.67;65.43;94883.31;5070372;28;20454;-67
2021/04/19 03:55:18;;;;;;;27.73;19.80;;;;;;;8.73;65.06;94881.56;5080035;28;20227;-68
2021/04/19 03:57:48;;;;;;;27.83;19.70;;;;;;;8.76;65.40;94887.06;5074452;28;20607;-68
2021/04/19 04:00:24;;;;;;;27.87;20.73;;;;;;;8.78;64.38;94879.00;5074775;28;20442;-68
2021/04/19 04:03:08;;;;;;;33.40;22.37;;;;;;;8.53;64.98;94887.31;5072068;28;20449;-69
2021/04/19 04:06:01;;;;;;;35.93;23.97;;;;;;;8.62;65.21;94864.19;5079125;28;20931;-69
2021/04/19 04:08:33;;;;;;;32.30;23.23;;;;;;;8.32;66.13;94842.94;5074125;28;20500;-68
2021/04/19 04:11:01;;;;;;;37.07;25.87;;;;;;;8.49;66.38;94874.97;5069386;28;20857;-67
2021/04/19 04:13:29;;;;;;;35.10;24.02;;;;;;;8.63;65.12;94874.38;5069638;28;20804;-67
2021/04/19 04:15:59;;;;;;;39.05;26.85;;;;;;;8.54;65.65;94877.69;5072756;28;20226;-67
2021/04/19 04:18:34;;;;;;;39.57;27.00;;;;;;;8.64;65.59;94872.56;5089880;28;20588;-69
2021/04/19 04:21:05;;;;;;;41.20;27.48;;;;;;;8.75;65.42;94864.59;5089764;28;20438;-67
2021/04/19 04:23:32;;;;;;;39.67;26.70;;;;;;;8.87;65.07;94880.13;5089756;28;20256;-69
2021/04/19 04:26:00;;;;;;;41.33;26.25;;;;;;;8.54;65.44;94883.66;5090959;28;20453;-68
2021/04/19 04:28:31;;;;;;;44.50;27.73;;;;;;;8.56;65.59;94873.00;5089600;28;20207;-70
2021/04/19 04:31:03;;;;;;;45.63;27.40;;;;;;;8.59;65.07;94881.13;5073504;28;20452;-69
2021/04/19 04:33:36;;;;;;;43.20;25.77;;;;;;;8.64;65.27;94868.13;5089519;28;20498;-67
2021/04/19 04:36:09;;;;;;;38.40;25.10;;;;;;;8.77;64.83;94883.44;5089521;28;20524;-69
2021/04/19 04:38:39;;;;;;;39.57;25.37;;;;;;;8.72;65.20;94880.75;5089166;28;20453;-70
2021/04/19 04:41:12;;;;;;;40.23;24.27;;;;;;;8.74;65.29;94889.13;5089256;28;20472;-68
2021/04/19 04:43:41;;;;;;;46.50;28.40;;;;;;;8.78;64.97;94885.00;5080726;28;20446;-67
2021/04/19 04:46:23;;;;;;;84.63;58.40;;;;;;;8.77;65.16;94867.78;5068565;28;20493;-66
2021/04/19 04:48:59;;;;;;;47.60;30.40;;;;;;;8.97;64.86;94890.72;5069235;28;20450;-67
2021/04/19 04:51:28;;;;;;;170.30;105.40;;;;;;;8.86;64.85;94892.44;5070507;28;20512;-66
2021/04/19 04:53:59;;;;;;;40.37;25.90;;;;;;;9.06;65.14;94884.81;5069948;28;20442;-66
2021/04/19 04:56:30;;;;;;;36.50;23.73;;;;;;;8.95;65.38;94880.50;5070388;28;20564;-67
2021/04/19 04:58:57;;;;;;;39.53;24.37;;;;;;;9.05;64.60;94880.59;5070378;28;20508;-69
2021/04/19 05:01:27;;;;;;;37.20;24.20;;;;;;;9.08;64.71;94880.13;5070281;28;20448;-67
2021/04/19 05:03:54;;;;;;;38.13;24.03;;;;;;;9.02;64.88;94878.50;5070172;28;20458;-69
2021/04/19 05:06:21;;;;;;;37.37;24.90;;;;;;;9.12;64.91;94883.81;5070426;28;20971;-66
2021/04/19 05:08:49;;;;;;;40.83;25.53;;;;;;;9.08;65.41;94874.09;5070048;28;20479;-68
2021/04/19 05:11:15;;;;;;;41.93;26.17;;;;;;;9.05;65.49;94878.00;5069898;28;20478;-67
2021/04/19 05:13:42;;;;;;;41.27;27.77;;;;;;;8.79;66.69;94875.34;5070091;28;20531;-68
2021/04/19 05:16:08;;;;;;;78.07;56.17;;;;;;;8.75;66.75;94872.44;5069941;28;20504;-66
2021/04/19 05:18:35;;;;;;;244.67;177.73;;;;;;;8.80;67.78;94877.72;5070184;28;20511;-68
2021/04/19 05:21:03;;;;;;;46.90;29.17;;;;;;;8.92;66.79;94878.38;5070092;28;20440;-67
2021/04/19 05:23:29;;;;;;;44.67;28.57;;;;;;;8.97;67.92;94875.03;5069667;28;20445;-67
2021/04/19 05:25:59;;;;;;;41.67;27.33;;;;;;;9.06;68.41;94876.16;5070355;28;20446;-67
2021/04/19 05:28:26;;;;;;;44.57;28.00;;;;;;;8.83;68.03;94879.84;5070125;28;20959;-67
2021/04/19 05:30:53;;;;;;;41.97;27.37;;;;;;;8.85;68.04;94875.16;5069722;28;20548;-68
2021/04/19 05:33:20;;;;;;;44.43;28.53;;;;;;;8.77;67.65;94862.53;5069414;28;20487;-69
2021/04/19 05:35:47;;;;;;;44.00;29.33;;;;;;;8.95;68.00;94872.66;5070338;28;20482;-68
2021/04/19 05:38:14;;;;;;;46.90;28.67;;;;;;;8.87;68.26;94873.09;5069258;28;20444;-67
2021/04/19 05:40:41;;;;;;;44.60;29.23;;;;;;;8.79;68.45;94870.13;5070066;28;20449;-67
2021/04/19 05:43:08;;;;;;;43.73;28.17;;;;;;;8.91;67.81;94879.41;5069463;28;21028;-67
2021/04/19 05:45:36;;;;;;;45.17;28.93;;;;;;;8.74;68.61;94868.25;5070431;28;20445;-67
2021/04/19 05:48:07;;;;;;;48.77;30.93;;;;;;;8.89;67.82;94872.84;5069353;28;20512;-68
2021/04/19 05:50:35;;;;;;;47.47;32.83;;;;;;;8.75;68.98;94875.06;5070484;28;20850;-67
2021/04/19 05:53:03;;;;;;;47.70;32.70;;;;;;;8.59;69.73;94865.47;5072735;28;20441;-67
2021/04/19 05:55:31;;;;;;;50.73;32.80;;;;;;;8.79;69.25;94860.47;5073681;28;20357;-67
2021/04/19 05:58:10;;;;;;;48.63;31.80;;;;;;;8.71;69.23;94858.28;5073719;28;20437;-67
2021/04/19 06:00:41;;;;;;;50.93;32.43;;;;;;;8.87;69.07;94865.25;5073876;28;20639;-66
2021/04/19 06:03:19;;;;;;;50.53;31.07;;;;;;;8.93;68.43;94864.28;5070968;28;20434;-66
2021/04/19 06:06:17;;;;;;;46.87;30.97;;;;;;;8.95;68.75;94854.38;5070252;28;20473;-66
2021/04/19 06:09:03;;;;;;;52.17;33.87;;;;;;;8.96;69.01;94858.56;5068267;28;20445;-68
2021/04/19 06:11:57;;;;;;;47.63;31.87;;;;;;;8.78;69.19;94847.63;5068164;28;20493;-66
2021/04/19 06:14:41;;;;;;;50.10;32.47;;;;;;;8.94;69.01;94852.78;5068617;28;20438;-66
2021/04/19 06:17:09;;;;;;;60.08;35.97;;;;;;;8.94;68.67;94858.00;5069775;28;20449;-66
2021/04/19 06:19:42;;;;;;;63.93;39.00;;;;;;;8.98;69.20;94859.09;5068919;28;20222;-67
2021/04/19 06:22:09;;;;;;;56.07;37.13;;;;;;;8.93;69.21;94848.59;5070590;28;20441;-67
2021/04/19 06:24:35;;;;;;;68.83;41.47;;;;;;;8.78;69.83;94858.09;5073359;28;20436;-66
2021/04/19 06:27:02;;;;;;;70.93;43.13;;;;;;;8.86;69.42;94845.41;5072568;28;20450;-67
2021/04/19 06:29:30;;;;;;;65.57;41.40;;;;;;;8.78;69.94;94842.41;5072910;28;20207;-67
2021/04/19 06:31:58;;;;;;;63.43;40.20;;;;;;;8.99;69.00;94845.03;5072431;28;20473;-66
2021/04/19 06:34:24;;;;;;;62.93;39.17;;;;;;;9.05;68.54;94849.25;5072632;28;20438;-66
2021/04/19 06:36:51;;;;;;;56.87;36.73;;;;;;;9.02;68.65;94849.75;5072263;28;20458;-66
2021/04/19 06:39:19;;;;;;;52.27;35.83;;;;;;;9.13;68.44;94840.97;5072864;28;20987;-68
2021/04/19 06:41:47;;;;;;;56.77;35.43;;;;;;;8.98;68.21;94842.63;5071933;28;20430;-66
2021/04/19 06:44:14;;;;;;;51.33;34.60;;;;;;;9.20;68.43;94845.97;5072506;28;20450;-67
2021/04/19 06:46:43;;;;;;;51.90;33.30;;;;;;;9.15;67.95;94844.13;5072152;28;20858;-67
2021/04/19 06:49:14;;;;;;;51.03;34.43;;;;;;;8.81;69.45;94847.16;5072804;28;20481;-66
2021/04/19 06:51:42;;;;;;;52.50;36.17;;;;;;;9.20;68.27;94849.38;5072589;28;20509;-66
2021/04/19 06:54:10;;;;;;;54.63;35.70;;;;;;;9.12;68.03;94838.59;5071311;28;20446;-67
2021/04/19 06:56:47;;;;;;;48.37;32.83;;;;;;;9.16;68.55;94845.69;5072005;28;20485;-67
2021/04/19 06:59:16;;;;;;;45.07;32.03;;;;;;;9.31;68.21;94839.00;5072641;28;20450;-66
2021/04/19 07:01:43;;;;;;;45.83;30.83;;;;;;;9.29;69.85;94841.13;5071930;28;20928;-66
2021/04/19 07:04:13;;;;;;;47.83;31.20;;;;;;;9.39;69.19;94849.03;5072380;28;20792;-66
2021/04/19 07:06:40;;;;;;;46.77;31.73;;;;;;;9.54;68.98;94846.56;5070574;28;20434;-67
2021/04/19 07:09:26;;;;;;;48.07;33.93;;;;;;;9.60;68.11;94856.03;5071002;28;20481;-67
2021/04/19 07:11:59;;;;;;;50.37;33.43;;;;;;;9.54;67.62;94846.56;5071589;28;20516;-66
2021/04/19 07:14:29;;;;;;;50.10;34.03;;;;;;;9.52;67.17;94857.25;5072281;28;20450;-66
2021/04/19 07:16:56;;;;;;;52.40;34.10;;;;;;;9.59;67.43;94854.44;5071403;28;20930;-66
2021/04/19 07:19:24;;;;;;;47.00;32.75;;;;;;;9.49;67.52;94854.34;5071972;28;20438;-66
2021/04/19 07:21:52;;;;;;;51.40;35.37;;;;;;;9.46;68.20;94850.41;5071635;28;20200;-66
2021/04/19 07:24:19;;;;;;;55.07;36.63;;;;;;;9.29;68.03;94848.97;5071001;28;20442;-67
2021/04/19 07:26:48;;;;;;;48.07;35.07;;;;;;;9.37;68.34;94858.94;5071401;28;20473;-66
2021/04/19 07:29:16;;;;;;;50.43;34.27;;;;;;;9.29;68.72;94859.41;5072195;28;20457;-67
2021/04/19 07:31:48;;;;;;;55.67;37.17;;;;;;;9.30;68.75;94861.78;5070966;28;20523;-67
2021/04/19 07:34:16;;;;;;;60.50;41.07;;;;;;;9.13;69.07;94864.50;5071806;28;20445;-65
2021/04/19 07:36:51;;;;;;;60.37;42.13;;;;;;;9.27;69.04;94858.88;5070247;28;20481;-65
2021/04/19 07:39:20;;;;;;;56.40;38.37;;;;;;;9.12;68.75;94836.75;5071822;28;20453;-66
2021/04/19 07:41:52;;;;;;;55.83;36.87;;;;;;;9.19;69.13;94855.66;5070926;28;20437;-66
2021/04/19 07:44:41;;;;;;;56.23;37.40;;;;;;;9.26;68.62;94857.28;5071608;28;20473;-66
2021/04/19 07:47:19;;;;;;;56.20;37.40;;;;;;;9.31;68.66;94850.25;5070900;28;20435;-67
2021/04/19 07:50:05;;;;;;;53.67;35.97;;;;;;;9.34;68.56;94854.22;5071409;28;20499;-65
2021/04/19 07:52:36;;;;;;;51.77;35.07;;;;;;;9.43;68.54;94848.31;5070994;28;20562;-67
2021/04/19 07:55:12;;;;;;;51.50;35.30;;;;;;;9.41;68.33;94846.97;5071228;28;20513;-66
2021/04/19 07:58:00;;;;;;;46.43;32.77;;;;;;;9.44;68.31;94825.53;5069173;28;20538;-67
2021/04/19 08:00:34;;;;;;;50.90;33.97;;;;;;;9.53;68.74;94839.72;5071341;28;20813;-67
2021/04/19 08:03:04;;;;;;;47.17;32.63;;;;;;;9.58;68.26;94831.94;5070418;28;20454;-67
2021/04/19 08:05:36;;;;;;;48.27;30.90;;;;;;;9.47;68.68;94822.44;5071438;28;20438;-66
2021/04/19 08:08:04;;;;;;;47.10;30.63;;;;;;;9.49;68.26;94812.50;5070339;28;20448;-67
2021/04/19 08:10:31;;;;;;;50.90;33.60;;;;;;;9.64;68.41;94820.44;5070917;28;20513;-67
2021/04/19 08:13:03;;;;;;;53.53;33.77;;;;;;;9.57;69.16;94814.66;5070029;28;20470;-67
2021/04/19 08:15:30;;;;;;;49.20;33.23;;;;;;;9.40;69.18;94824.47;5070964;28;20943;-66
2021/04/19 08:18:07;;;;;;;48.47;32.67;;;;;;;9.61;68.45;94810.50;5070120;28;20445;-67
2021/04/19 08:20:35;;;;;;;46.57;31.60;;;;;;;9.70;68.52;94809.78;5070643;28;20445;-68
2021/04/19 08:23:08;;;;;;;50.60;34.20;;;;;;;9.64;68.66;94820.44;5070698;28;20488;-66
2021/04/19 08:25:37;;;;;;;57.17;35.37;;;;;;;9.60;69.06;94819.41;5070737;28;20444;-68
2021/04/19 08:28:17;;;;;;;54.07;33.40;;;;;;;9.59;68.33;94792.44;5068868;28;20435;-68
2021/04/19 08:30:47;;;;;;;49.67;30.73;;;;;;;9.74;68.06;94804.84;5070468;28;20500;-67
2021/04/19 08:33:14;;;;;;;39.77;25.07;;;;;;;9.83;68.28;94804.13;5070272;28;20437;-67
2021/04/19 08:35:45;;;;;;;31.90;20.90;;;;;;;9.85;67.17;94798.63;5070674;28;20489;-67
2021/04/19 08:38:12;;;;;;;34.03;22.40;;;;;;;9.65;67.96;94801.13;5069809;28;20533;-67
2021/04/19 08:40:40;;;;;;;42.60;28.20;;;;;;;9.76;68.40;94793.06;5070415;28;20450;-67
2021/04/19 08:43:20;;;;;;;42.43;28.40;;;;;;;9.67;68.50;94791.19;5069663;28;20541;-66
2021/04/19 08:45:48;;;;;;;40.60;27.20;;;;;;;9.68;68.00;94787.53;5069823;28;20457;-68
2021/04/19 08:48:15;;;;;;;35.57;25.27;;;;;;;9.67;68.79;94783.34;5069525;28;20433;-68
2021/04/19 08:50:45;;;;;;;38.03;25.27;;;;;;;9.68;68.13;94784.91;5070664;28;20445;-67
2021/04/19 08:53:14;;;;;;;28.27;19.97;;;;;;;9.63;67.64;94756.91;5071351;28;20805;-67
2021/04/19 08:55:43;;;;;;;24.87;17.73;;;;;;;9.86;67.42;94768.78;5073314;28;20484;-66
2021/04/19 08:58:15;;;;;;;34.77;23.77;;;;;;;9.87;67.27;94783.47;5069922;28;20456;-67
2021/04/19 09:00:44;;;;;;;16.10;12.40;;;;;;;9.92;66.23;94786.09;5070346;28;20442;-66
2021/04/19 09:03:16;;;;;;;18.50;13.47;;;;;;;9.86;66.41;94774.03;5069513;28;20429;-68
2021/04/19 09:05:42;;;;;;;16.80;12.07;;;;;;;9.91;67.07;94785.31;5070435;28;20433;-67
2021/04/19 09:08:19;;;;;;;18.20;12.40;;;;;;;9.90;68.47;94773.28;5069293;28;20449;-67
2021/04/19 09:11:06;;;;;;;17.67;12.13;;;;;;;10.14;68.02;94773.69;5070101;28;20473;-68
2021/04/19 09:13:35;;;;;;;15.60;11.80;;;;;;;10.09;68.13;94777.06;5069971;28;20440;-66
2021/04/19 09:16:23;;;;;;;18.63;12.90;;;;;;;10.27;67.83;94777.66;5070079;28;20501;-69
2021/04/19 09:18:59;;;;;;;23.10;13.47;;;;;;;10.12;67.20;94770.53;5069571;28;20442;-67
2021/04/19 09:21:49;;;;;;;25.30;14.60;;;;;;;9.97;67.69;94773.84;5070270;28;20507;-66
2021/04/19 09:24:18;;;;;;;21.00;14.20;;;;;;;10.06;68.47;94780.16;5069920;28;20514;-68
2021/04/19 09:26:45;;;;;;;20.47;15.30;;;;;;;9.84;68.47;94783.94;5069772;28;20434;-67
2021/04/19 09:29:35;;;;;;;24.93;16.27;;;;;;;9.90;68.12;94780.34;5069964;28;20531;-66
2021/04/19 09:32:05;;;;;;;25.17;17.30;;;;;;;10.03;68.00;94785.13;5066130;28;20453;-66
2021/04/19 09:34:49;;;;;;;22.17;16.07;;;;;;;10.01;68.07;94774.13;5070262;28;20437;-66
2021/04/19 09:37:43;;;;;;;22.07;16.37;;;;;;;10.12;67.75;94765.31;5069203;28;20450;-67
2021/04/19 09:40:23;;;;;;;27.30;19.07;;;;;;;10.00;68.77;94756.81;5069774;28;20860;-66
2021/04/19 09:43:08;;;;;;;27.17;18.70;;;;;;;10.05;68.46;94762.09;5069447;28;20442;-67
2021/04/19 09:45:52;;;;;;;27.13;18.83;;;;;;;10.06;68.26;94761.03;5069741;28;20549;-67
2021/04/19 09:48:43;;;;;;;30.07;20.03;;;;;;;10.23;67.68;94753.84;5069184;28;20464;-66
2021/04/19 09:51:16;;;;;;;24.63;17.13;;;;;;;10.14;68.85;94752.75;5069842;28;21018;-68
2021/04/19 09:54:06;;;;;;;22.93;16.80;;;;;;;10.22;68.31;94757.47;5069823;28;20890;-66
2021/04/19 09:56:48;;;;;;;21.20;14.67;;;;;;;10.22;68.23;94754.84;5070368;28;20530;-67
2021/04/19 09:59:23;;;;;;;18.23;12.13;;;;;;;10.41;67.36;94761.22;5073952;28;20425;-67
2021/04/19 10:01:54;;;;;;;15.40;11.77;;;;;;;10.36;67.17;94745.50;5073543;28;20441;-67
2021/04/19 10:04:22;;;;;;;15.90;11.20;;;;;;;10.40;67.58;94740.53;5073553;28;20492;-67
2021/04/19 10:07:01;;;;;;;17.70;12.27;;;;;;;10.41;67.67;94748.13;5072689;28;20516;-67
2021/04/19 10:09:30;;;;;;;15.37;11.20;;;;;;;10.02;67.38;94739.03;5072994;28;20469;-69
2021/04/19 10:12:05;;;;;;;9.50;7.20;;;;;;;10.02;67.71;94741.66;5073056;28;20931;-68
2021/04/19 10:14:39;;;;;;;11.83;7.87;;;;;;;9.94;66.85;94734.31;5073046;28;21062;-67
2021/04/19 10:17:16;;;;;;;9.43;7.70;;;;;;;9.96;68.06;94732.97;5072674;28;20868;-68
2021/04/19 10:19:44;;;;;;;12.83;8.83;;;;;;;10.19;67.52;94743.09;5073385;28;20555;-67
2021/04/19 10:22:12;;;;;;;12.47;8.47;;;;;;;10.10;68.51;94741.19;5073209;28;20457;-66
2021/04/19 10:24:52;;;;;;;9.77;7.30;;;;;;;10.26;67.26;94729.75;5073246;28;20913;-66
2021/04/19 10:27:26;;;;;;;8.90;6.90;;;;;;;10.53;66.73;94724.34;5072607;28;20437;-66
2021/04/19 10:29:54;;;;;;;9.63;6.77;;;;;;;10.66;66.55;94729.06;5072888;28;20541;-67
2021/04/19 10:32:30;;;;;;;8.83;6.70;;;;;;;10.77;65.56;94731.44;5072620;28;20429;-67
2021/04/19 10:34:57;;;;;;;7.90;6.67;;;;;;;10.93;65.18;94725.16;5072313;28;20461;-68
2021/04/19 10:37:23;;;;;;;7.83;6.10;;;;;;;10.76;65.24;94711.53;5072550;28;20782;-67
2021/04/19 10:39:50;;;;;;;10.50;5.93;;;;;;;11.01;65.15;94711.53;5072605;28;20442;-67
2021/04/19 10:42:27;;;;;;;5.20;4.17;;;;;;;11.48;64.26;94710.47;5072176;28;20517;-66
2021/04/19 10:44:57;;;;;;;7.13;4.97;;;;;;;12.02;63.70;94706.16;5072759;28;20450;-67
2021/04/19 10:47:31;;;;;;;4.80;4.00;;;;;;;12.38;63.72;94701.53;5071949;28;21030;-66
2021/04/19 10:49:58;;;;;;;3.90;3.03;;;;;;;11.43;61.71;94702.59;5071111;28;20442;-67
2021/04/19 10:52:24;;;;;;;4.20;3.17;;;;;;;11.15;62.47;94685.56;5072222;28;20513;-67
2021/04/19 10:54:51;;;;;;;4.63;2.60;;;;;;;11.34;62.90;94704.19;5072495;28;20491;-66
2021/04/19 10:57:27;;;;;;;3.77;2.80;;;;;;;11.12;62.65;94692.16;5072212;28;20978;-67
2021/04/19 11:00:05;;;;;;;5.40;3.50;;;;;;;10.93;63.36;94698.94;5072820;28;20434;-66
2021/04/19 11:02:32;;;;;;;4.73;3.80;;;;;;;10.94;64.89;94699.75;5071997;28;20442;-66
2021/04/19 11:05:00;;;;;;;5.90;4.17;;;;;;;10.98;64.33;94685.84;5072730;28;20438;-66
2021/04/19 11:07:31;;;;;;;6.50;4.20;;;;;;;10.79;64.84;94691.88;5071523;28;20469;-67
2021/04/19 11:10:10;;;;;;;6.73;4.73;;;;;;;10.60;64.70;94688.94;5072074;28;20501;-66
2021/04/19 11:12:36;;;;;;;8.27;4.73;;;;;;;10.56;65.13;94685.31;5072015;28;20822;-67
2021/04/19 11:15:11;;;;;;;5.33;4.00;;;;;;;10.41;65.09;94680.03;5072700;28;20813;-67
2021/04/19 11:17:38;;;;;;;5.77;4.20;;;;;;;10.49;64.51;94686.59;5071238;28;20782;-66
2021/04/19 11:20:20;;;;;;;5.97;4.60;;;;;;;10.50;64.11;94678.47;5072322;28;20465;-66
2021/04/19 11:22:47;;;;;;;5.73;4.73;;;;;;;10.55;65.63;94685.53;5071772;28;21050;-67
2021/04/19 11:25:18;;;;;;;7.10;5.17;;;;;;;10.26;65.49;94682.59;5072356;28;21049;-66
2021/04/19 11:27:50;;;;;;;6.63;5.03;;;;;;;10.37;65.37;94689.44;5071306;28;20438;-66
2021/04/19 11:30:26;;;;;;;6.40;4.97;;;;;;;10.28;64.81;94658.78;5072057;28;20457;-68
2021/04/19 11:33:08;;;;;;;6.67;4.50;;;;;;;10.47;64.99;94679.00;5071248;28;20426;-66
2021/04/19 11:35:45;;;;;;;6.23;4.27;;;;;;;10.44;64.32;94674.25;5071872;28;20489;-65
2021/04/19 11:38:23;;;;;;;4.93;3.93;;;;;;;10.50;64.75;94675.84;5071314;28;20437;-68
2021/04/19 11:41:06;;;;;;;5.00;3.93;;;;;;;10.24;64.45;94666.38;5071781;28;20436;-66
2021/04/19 11:43:48;;;;;;;4.10;2.97;;;;;;;10.29;64.09;94676.88;5071408;28;20537;-67
2021/04/19 11:46:17;;;;;;;4.07;3.13;;;;;;;10.45;64.24;94670.63;5071699;28;20430;-68
2021/04/19 11:48:47;;;;;;;4.53;3.20;;;;;;;10.18;64.27;94670.03;5072372;28;20442;-67
2021/04/19 11:51:17;;;;;;;3.57;2.80;;;;;;;10.23;63.78;94672.66;5071765;28;20532;-67